Airfield :
LOGIN :

Register | Disclaimer

   EN    FR    IT 

 










Legend :    VFR   Marginal VFR   IFR   Intensive IFR   Very Intensive IFR
Visi :
Ceiling :
>= 8 km
>= 3000ft
5 to 8 km
1000 to 3000 ft
1500m to 5 km
500 to 1000 ft
800 to 1500m
200 to 500 ft
< 800m
< 200 ft
Symbols :   Thunderstorms  Fog  Heavy snow  Heavy precipitations  Wind > 20 kt
SIGMETs :     Misc.  Thunderstorms  Icing  Turbulence  Mountain Waves  Volcanic Ashes






- Airport Elevation : 1367 ft
- IATA code : FDH


EDNY - Friedrichshafen

CURRENT METAR :
  • 202250Z AUTO 26010KT 240V300 9999 FEW074/// BKN091/// 24/12 Q1020

EXPIRED METARs :
  • 202220Z AUTO 26012KT 220V290 9999 BKN100/// 25/11 Q1020
  • 202150Z AUTO 25009KT 220V300 9999 FEW100/// BKN170/// 24/12 Q1020
  • 202120Z AUTO 24010KT 9999 OVC100/// 24/12 Q1019
  • 202050Z AUTO 24009KT 9999 OVC100/// 25/12 Q1019
  • 202020Z AUTO 25009KT 9999 OVC100/// 25/12 Q1019

TAF TAF EDNY
Valid from the 20 at 18:00 until the 21 at 18:00 UTC


201700Z 2018/2118 VRB03KT CAVOK
PROB30
TEMPO 2023/2104 33015G25KT SHRA BKN050CB
BECMG 2107/2109 24009KT
BECMG 2116/2118 25004KT



MET'MAP, your aeronautical weather chart ! - Copyright ORBIFLY December 2007 - Disclaimer

ORBIFLY MET'MAP TEAM :

Programming & Development : Alexandra Zaïnal
Original concept : Baudouin d'Aumeries
Technical & hardware support : Manuel Goepfert
Assistance : Marc-Olivier Méhu

Contact : metmap@orbifly.com




SOURCES & CREDITS :

   NOAA